Time;durP1;ratioP1;P1;durP2;ratioP2;P2;SDS_P1;SDS_P2;PMS_P1;PMS_P2;Temp;Humidity;BMP_temperature;BMP_pressure;BME280_temperature;BME280_humidity;BME280_pressure;Samples;Min_cycle;Max_cycle;Signal;HPM_P1;HPM_P2
2021/06/02 00:00:15;;;;;;;5.43;3.93;;;10.80;99.90;;;11.49;46.34;93996.88;5034949;28;20202;-72
2021/06/02 00:02:55;;;;;;;3.87;3.07;;;10.70;99.90;;;11.44;46.59;93999.53;5041449;28;20193;-72
2021/06/02 00:05:23;;;;;;;3.63;3.10;;;10.60;99.90;;;11.44;46.88;93999.53;5048107;28;20189;-71
2021/06/02 00:07:50;;;;;;;5.07;3.50;;;10.90;99.90;;;11.41;47.20;94004.56;5043184;28;20210;-72
2021/06/02 00:10:20;;;;;;;4.87;3.60;;;10.50;99.90;;;11.42;46.89;93995.53;5021181;28;20604;-70
2021/06/02 00:12:47;;;;;;;6.07;3.87;;;10.50;99.90;;;11.34;47.24;93994.25;5045643;28;20208;-71
2021/06/02 00:15:13;;;;;;;3.97;3.57;;;10.50;99.90;;;11.40;47.30;93992.38;5041819;28;20208;-71
2021/06/02 00:17:43;;;;;;;4.23;3.33;;;10.50;99.90;;;11.48;47.30;93989.97;5042763;28;20195;-71
2021/06/02 00:20:14;;;;;;;5.10;4.07;;;10.50;99.90;;;11.47;47.29;93985.72;5046607;28;20245;-71
2021/06/02 00:22:42;;;;;;;4.93;3.50;;;10.50;99.90;;;11.40;47.59;93995.03;5054853;28;20217;-71
2021/06/02 00:25:09;;;;;;;5.27;3.60;;;10.50;99.90;;;11.43;47.38;93997.94;5045319;28;20549;-71
2021/06/02 00:27:40;;;;;;;4.23;3.60;;;10.50;99.90;;;11.38;47.63;94005.91;5027921;28;20194;-70
2021/06/02 00:30:10;;;;;;;3.93;3.53;;;10.50;99.90;;;11.44;47.75;94006.69;5045882;28;20563;-71
2021/06/02 00:32:37;;;;;;;4.10;3.33;;;10.50;99.90;;;11.44;47.74;93996.09;5024961;28;20196;-71
2021/06/02 00:35:06;;;;;;;5.63;3.50;;;10.60;99.90;;;11.40;47.92;93992.38;5036305;28;20202;-71
2021/06/02 00:37:34;;;;;;;3.50;3.20;;;10.50;99.90;;;11.31;47.99;93992.88;5040965;28;20830;-71
2021/06/02 00:40:01;;;;;;;4.47;3.63;;;10.40;99.90;;;11.26;47.97;93997.41;5055290;28;20253;-71
2021/06/02 00:42:32;;;;;;;5.80;3.37;;;10.40;99.90;;;11.25;48.25;93993.97;5028768;28;20192;-71
2021/06/02 00:44:59;;;;;;;4.10;3.63;;;10.40;99.90;;;11.16;48.41;94003.50;5042478;28;20199;-71
2021/06/02 00:47:27;;;;;;;5.80;3.53;;;10.30;99.90;;;11.14;48.15;94007.50;5040711;28;20213;-71
2021/06/02 00:49:53;;;;;;;4.33;3.50;;;10.30;99.90;;;11.11;48.33;94000.06;5041374;28;20230;-71
2021/06/02 00:52:19;;;;;;;4.10;3.30;;;10.20;99.90;;;11.06;48.50;94002.72;5041869;28;20196;-70
2021/06/02 00:54:45;;;;;;;5.60;3.40;;;10.30;99.90;;;11.05;48.52;93995.81;5046383;28;20199;-70
2021/06/02 00:57:17;;;;;;;4.40;3.90;;;10.20;99.90;;;10.97;48.90;94007.75;5046466;28;20289;-71
2021/06/02 00:59:45;;;;;;;5.20;4.30;;;10.20;99.90;;;10.90;48.67;93999.25;5050383;28;20204;-71
2021/06/02 01:02:17;;;;;;;5.10;3.77;;;10.10;99.90;;;10.91;48.94;94000.06;5047366;28;20195;-73
2021/06/02 01:04:44;;;;;;;4.40;4.00;;;10.10;99.90;;;10.90;49.06;94007.22;5061248;28;20324;-72
2021/06/02 01:07:12;;;;;;;3.80;3.40;;;9.80;99.90;;;10.87;49.01;94004.28;5046917;28;20665;-71
2021/06/02 01:09:51;;;;;;;3.83;3.53;;;10.00;99.90;;;10.83;49.05;94001.38;5065451;28;20258;-71
2021/06/02 01:12:21;;;;;;;5.60;3.40;;;9.90;99.90;;;10.84;49.10;94010.94;5045451;28;20732;-71
2021/06/02 01:14:51;;;;;;;5.60;3.53;;;9.90;99.90;;;10.91;49.17;94011.47;5045470;28;20191;-71
2021/06/02 01:17:29;;;;;;;3.97;3.57;;;10.10;99.90;;;10.94;49.13;94010.13;5045785;28;20215;-72
2021/06/02 01:19:59;;;;;;;4.03;3.63;;;10.10;99.90;;;10.87;49.17;94013.03;5048846;28;20521;-71
2021/06/02 01:22:32;;;;;;;3.70;3.40;;;10.00;99.90;;;10.98;49.75;94027.88;5055931;28;20221;-70
2021/06/02 01:25:09;;;;;;;4.60;3.50;;;10.10;99.90;;;11.02;49.79;94020.22;5049190;28;20196;-70
2021/06/02 01:27:35;;;;;;;4.00;3.13;;;10.10;99.90;;;10.99;49.73;94021.53;5060543;28;20931;-71
2021/06/02 01:30:05;;;;;;;3.47;3.17;;;10.10;99.90;;;11.02;50.06;94025.50;5047638;28;20675;-72
2021/06/02 01:32:47;;;;;;;5.57;3.53;;;10.10;99.90;;;11.07;49.71;94036.13;5045195;28;20583;-71
2021/06/02 01:35:47;;;;;;;6.90;3.63;;;10.20;99.90;;;11.07;50.11;94036.13;5029487;28;20312;-71
2021/06/02 01:39:13;;;;;;;5.27;3.60;;;10.10;99.90;;;11.09;50.10;94040.13;5045636;28;20197;-71
2021/06/02 01:42:39;;;;;;;3.97;3.60;;;10.10;99.90;;;11.07;50.26;94036.94;5044608;28;20287;-71
2021/06/02 01:45:36;;;;;;;3.60;3.30;;;10.20;99.90;;;11.07;50.12;94042.25;4999532;28;20208;-71
2021/06/02 01:48:30;;;;;;;7.33;3.70;;;10.20;99.90;;;11.11;50.58;94050.47;4987771;28;20208;-71
2021/06/02 01:51:34;;;;;;;4.50;3.70;;;10.20;99.90;;;11.09;50.45;94061.31;4986042;28;20326;-72
2021/06/02 01:54:46;;;;;;;3.73;3.43;;;10.20;99.90;;;11.20;50.79;94067.44;5005137;28;20712;-72
2021/06/02 01:57:31;;;;;;;6.93;3.97;;;10.30;99.90;;;11.19;50.47;94060.53;5003712;28;20187;-70
2021/06/02 02:00:56;;;;;;;4.17;3.67;;;10.30;99.90;;;11.17;50.46;94057.38;4990399;28;20195;-71
2021/06/02 02:03:55;;;;;;;4.17;3.37;;;10.30;99.90;;;11.36;51.03;94061.09;5008143;28;20223;-72
2021/06/02 02:06:33;;;;;;;4.00;3.70;;;10.50;99.90;;;11.41;50.80;94052.34;5005923;28;20187;-71
2021/06/02 02:09:27;;;;;;;3.73;3.40;;;10.50;99.90;;;11.47;51.04;94067.19;5003561;28;20228;-71
2021/06/02 02:12:24;;;;;;;6.03;3.67;;;10.60;99.90;;;11.56;51.29;94066.41;5002254;28;20187;-71
2021/06/02 02:15:45;;;;;;;4.63;3.80;;;10.60;99.90;;;11.65;51.39;94067.44;4988281;28;20205;-70
2021/06/02 02:18:59;;;;;;;6.63;4.53;;;10.70;99.90;;;11.63;51.65;94058.97;4967638;28;20205;-72
2021/06/02 02:21:50;;;;;;;5.60;5.00;;;10.70;99.90;;;11.67;51.64;94062.69;4933289;29;20207;-71
2021/06/02 02:24:56;;;;;;;5.70;5.10;;;10.80;99.90;;;11.79;51.49;94059.78;4885656;29;20216;-72
2021/06/02 02:27:35;;;;;;;6.47;5.10;;;10.90;99.90;;;11.88;51.82;94063.50;4889164;29;20222;-71
2021/06/02 02:30:05;;;;;;;5.30;4.80;;;10.90;99.90;;;12.04;51.93;94061.59;4873790;29;20221;-71
2021/06/02 02:33:07;;;;;;;7.40;4.80;;;11.10;99.90;;;12.19;52.17;94067.66;4889498;29;20231;-71
2021/06/02 02:35:53;;;;;;;7.37;5.13;;;11.20;99.90;;;12.25;51.76;94066.59;4888114;29;20223;-71
2021/06/02 02:38:38;;;;;;;6.10;4.83;;;11.30;99.90;;;12.21;52.29;94062.88;4859429;29;20209;-72
2021/06/02 02:41:12;;;;;;;5.77;5.27;;;11.30;99.90;;;12.06;52.21;94062.13;4872413;29;20693;-70
2021/06/02 02:44:02;;;;;;;5.50;5.00;;;11.20;99.90;;;11.99;51.87;94075.69;4874322;29;20289;-71
2021/06/02 02:47:15;;;;;;;7.53;5.33;;;11.10;99.90;;;11.74;52.43;94073.88;4875212;29;20200;-70
2021/06/02 02:50:19;;;;;;;5.87;5.00;;;11.00;99.90;;;11.56;51.99;94076.22;4869389;29;20236;-71
2021/06/02 02:53:11;;;;;;;5.47;4.97;;;10.90;99.90;;;11.33;52.20;94069.59;4871082;29;21174;-71
2021/06/02 02:55:41;;;;;;;5.90;4.83;;;10.70;99.90;;;11.27;52.32;94074.09;4884340;29;20205;-72
2021/06/02 02:58:32;;;;;;;5.70;5.20;;;10.60;99.90;;;11.15;52.50;94078.03;4878950;29;20220;-70
2021/06/02 03:01:00;;;;;;;6.00;5.40;;;10.50;99.90;;;11.06;52.46;94077.78;4930711;28;20203;-71
2021/06/02 03:03:31;;;;;;;10.03;5.40;;;10.40;99.90;;;11.00;52.68;94083.34;4988779;28;20199;-71
2021/06/02 03:06:09;;;;;;;6.17;5.30;;;11.90;99.90;;;11.01;52.83;94098.97;5000642;28;20206;-71
2021/06/02 03:08:53;;;;;;;7.73;5.30;;;10.30;99.90;;;10.92;52.84;94091.78;4968842;28;20197;-71
2021/06/02 03:11:32;;;;;;;7.63;5.47;;;10.20;99.90;;;11.00;52.74;94085.97;4984993;28;20238;-71
2021/06/02 03:14:09;;;;;;;6.10;5.10;;;10.30;99.90;;;11.01;52.91;94095.53;4989928;28;20193;-70
2021/06/02 03:16:41;;;;;;;6.67;5.97;;;10.20;99.90;;;10.99;52.72;94092.34;4985391;28;20197;-71
2021/06/02 03:19:20;;;;;;;7.93;5.00;;;10.20;99.90;;;11.13;52.83;94114.66;4966331;28;20198;-71
2021/06/02 03:22:15;;;;;;;5.27;4.77;;;10.20;99.90;;;11.11;53.03;94109.59;4988322;28;20237;-71
2021/06/02 03:25:05;;;;;;;6.73;5.20;;;10.20;99.90;;;11.17;52.98;94121.84;4987968;28;20263;-70
2021/06/02 03:27:50;;;;;;;6.53;5.40;;;10.10;99.90;;;11.22;53.21;94118.38;5038713;28;20551;-71
2021/06/02 03:30:33;;;;;;;7.97;5.80;;;10.30;99.90;;;11.27;53.43;94107.78;5041815;28;20241;-71
2021/06/02 03:33:23;;;;;;;6.47;5.50;;;10.30;99.90;;;11.32;53.27;94116.53;5041048;28;20188;-70
2021/06/02 03:36:18;;;;;;;6.37;5.50;;;10.50;99.90;;;11.42;53.47;94117.59;5044239;28;20301;-71
2021/06/02 03:39:04;;;;;;;8.87;5.50;;;10.40;99.90;;;11.35;53.27;94123.16;5039515;28;20272;-71
2021/06/02 03:41:50;;;;;;;6.00;5.07;;;10.50;99.90;;;11.27;53.82;94116.53;5044098;28;20195;-72
2021/06/02 03:44:19;;;;;;;7.63;5.77;;;10.50;99.90;;;11.26;53.78;94119.44;5043304;28;20199;-72
2021/06/02 03:47:34;;;;;;;6.07;5.27;;;10.50;99.90;;;11.21;53.47;94117.56;5042327;28;20192;-70
2021/06/02 03:50:33;;;;;;;6.70;5.27;;;10.40;99.90;;;11.21;53.69;94122.88;5008996;28;20553;-70
2021/06/02 03:53:31;;;;;;;5.87;5.30;;;10.40;99.90;;;11.24;54.03;94122.38;4934466;28;20206;-69
2021/06/02 03:56:45;;;;;;;7.03;6.33;;;10.40;99.90;;;11.18;53.79;94120.75;4947746;28;20228;-71
2021/06/02 04:00:03;;;;;;;8.30;5.40;;;10.30;99.90;;;11.18;54.15;94120.75;4947421;28;20716;-71
2021/06/02 04:03:05;;;;;;;6.83;5.23;;;10.30;99.90;;;11.22;54.01;94129.78;4937182;28;20697;-69
2021/06/02 04:06:03;;;;;;;6.87;5.83;;;10.30;99.90;;;11.25;54.64;94128.47;4932383;28;20275;-71
2021/06/02 04:08:57;;;;;;;6.87;5.87;;;10.30;99.90;;;11.31;54.62;94138.81;4941403;28;20617;-71
2021/06/02 04:11:59;;;;;;;5.73;5.10;;;10.40;99.90;;;11.39;54.64;94136.72;4947476;28;20663;-69
2021/06/02 04:14:36;;;;;;;6.23;5.60;;;10.50;99.90;;;11.48;54.35;94143.13;4942055;28;20615;-71
2021/06/02 04:17:03;;;;;;;6.37;5.27;;;10.60;99.90;;;11.50;54.70;94135.66;4915214;29;20230;-70
2021/06/02 04:19:32;;;;;;;8.23;5.33;;;10.60;99.90;;;11.48;54.51;94141.25;4931681;29;20316;-70
2021/06/02 04:22:07;;;;;;;7.97;5.73;;;10.60;99.90;;;11.57;54.83;94155.59;4953932;28;20203;-70
2021/06/02 04:24:36;;;;;;;8.10;5.30;;;10.70;99.90;;;11.62;54.61;94144.97;4950164;28;20235;-70
2021/06/02 04:27:04;;;;;;;8.23;5.97;;;10.80;99.90;;;11.69;54.80;94150.00;4946337;28;20208;-72
2021/06/02 04:29:34;;;;;;;6.53;5.30;;;10.90;99.90;;;11.74;54.87;94145.56;4966003;28;20255;-69
2021/06/02 04:32:08;;;;;;;6.33;5.13;;;10.90;99.90;;;11.88;54.68;94150.34;5048068;28;20279;-70
2021/06/02 04:34:35;;;;;;;5.90;5.30;;;11.00;99.90;;;11.89;55.30;94146.59;5048242;28;20196;-70
2021/06/02 04:37:04;;;;;;;6.10;5.50;;;11.00;99.90;;;12.01;55.00;94150.59;5030762;28;20201;-72
2021/06/02 04:39:32;;;;;;;6.73;5.23;;;11.20;99.90;;;12.06;55.33;94150.56;5057447;28;20209;-72
2021/06/02 04:42:01;;;;;;;5.43;4.93;;;11.20;99.90;;;12.16;55.10;94149.75;5024671;28;20194;-72
2021/06/02 04:44:30;;;;;;;8.53;5.60;;;11.20;99.90;;;12.40;55.13;94144.69;5045868;28;20203;-70
2021/06/02 04:46:56;;;;;;;9.13;5.23;;;11.50;99.90;;;12.37;55.17;94139.91;5044941;28;20702;-72
2021/06/02 04:50:03;;;;;;;6.37;5.00;;;11.50;99.90;;;12.52;55.62;94147.84;5042345;28;20210;-71
2021/06/02 04:52:32;;;;;;;7.03;4.57;;;11.60;99.90;;;12.71;55.54;94151.53;5062949;28;20583;-70
2021/06/02 04:55:48;;;;;;;5.20;4.70;;;11.80;99.90;;;12.81;55.45;94140.84;5044638;28;20252;-71
2021/06/02 04:58:51;;;;;;;8.37;5.30;;;12.00;99.90;;;12.95;55.43;94143.72;5045693;28;20183;-70
2021/06/02 05:01:52;;;;;;;6.30;5.17;;;12.10;99.90;;;13.10;56.00;94147.13;5059853;28;20194;-72
2021/06/02 05:05:11;;;;;;;7.67;4.97;;;12.30;99.90;;;13.18;56.05;94138.59;5028226;28;20195;-70
2021/06/02 05:08:14;;;;;;;9.40;6.07;;;12.40;99.90;;;13.32;55.74;94139.56;5058897;28;20192;-72
2021/06/02 05:11:33;;;;;;;6.40;5.00;;;12.50;99.90;;;13.42;55.73;94138.72;5044201;28;20218;-72
2021/06/02 05:15:04;;;;;;;5.23;4.53;;;12.60;99.90;;;13.68;56.15;94145.47;5042847;28;20192;-72
2021/06/02 05:17:55;;;;;;;6.73;4.60;;;12.80;99.90;;;13.84;55.94;94141.59;5047940;28;20743;-73
2021/06/02 05:24:36;;;;;;;7.83;5.47;;;13.20;99.90;;;14.21;56.34;94146.34;5046031;28;20214;-72
2021/06/02 05:27:56;;;;;;;6.07;4.57;;;13.30;99.90;;;14.55;56.10;94142.88;5047360;28;20721;-73
2021/06/02 05:30:59;;;;;;;4.87;4.40;;;13.60;99.90;;;14.75;56.42;94142.66;5021586;28;20230;-73
2021/06/02 05:33:52;;;;;;;6.00;4.47;;;13.80;99.90;;;15.03;56.15;94147.13;5042671;28;20334;-76
2021/06/02 05:36:36;;;;;;;5.83;4.20;;;14.10;99.90;;;15.30;56.39;94144.66;5045278;28;20273;-72
2021/06/02 05:39:50;;;;;;;6.37;4.23;;;14.30;99.90;;;15.64;56.26;94154.38;5045799;28;20204;-72
2021/06/02 05:42:52;;;;;;;4.73;3.67;;;14.60;99.90;;;16.64;56.54;94188.63;5044430;28;20191;-74
2021/06/02 05:46:07;;;;;;;4.50;3.80;;;15.30;99.90;;;18.74;56.37;94207.72;5038249;28;20714;-73
2021/06/02 05:49:46;;;;;;;7.27;3.43;;;17.30;99.90;;;21.27;56.21;94209.03;5042503;28;20198;-71
2021/06/02 05:53:02;;;;;;;5.50;3.00;;;19.90;99.90;;;23.16;56.29;94183.31;5004184;28;20223;-73
2021/06/02 05:56:04;;;;;;;4.47;2.67;;;22.50;99.90;;;24.91;55.83;94184.41;5002439;28;20193;-70
2021/06/02 05:59:10;;;;;;;4.97;2.20;;;24.40;99.90;;;25.76;55.40;94178.44;4991251;28;20590;-71
2021/06/02 06:02:05;;;;;;;5.90;2.93;;;25.60;99.90;;;26.71;55.18;94198.78;4999674;28;21125;-74
2021/06/02 06:04:31;;;;;;;4.00;2.30;;;26.80;98.20;;;27.72;54.83;94164.84;4972631;28;20280;-71
2021/06/02 06:07:21;;;;;;;3.17;2.20;;;27.80;95.90;;;28.30;54.21;94177.03;5002819;28;20236;-72
2021/06/02 06:10:43;;;;;;;4.60;2.27;;;28.70;92.80;;;28.69;53.67;94182.22;4999609;28;20219;-72
2021/06/02 06:14:16;;;;;;;2.60;2.37;;;29.30;88.30;;;29.25;53.79;94162.91;5004663;28;20228;-72
2021/06/02 06:17:12;;;;;;;4.17;2.43;;;30.30;84.90;;;30.24;52.97;94186.44;4988613;28;20189;-73
2021/06/02 06:19:57;;;;;;;3.20;2.07;;;31.30;78.60;;;31.01;52.34;94198.97;4969944;28;20220;-71
2021/06/02 06:23:10;;;;;;;2.97;2.20;;;32.00;74.80;;;31.05;52.00;94197.03;4988542;28;20641;-73
2021/06/02 06:26:00;;;;;;;2.33;2.13;;;32.50;70.60;;;31.50;51.32;94160.75;5010182;28;20215;-74
2021/06/02 06:29:09;;;;;;;2.60;2.30;;;33.10;69.20;;;31.82;50.97;94144.31;5044093;28;20215;-73
2021/06/02 06:31:40;;;;;;;2.43;2.10;;;33.30;66.20;;;30.74;50.33;94105.38;5060211;28;20223;-74
2021/06/02 06:34:19;;;;;;;4.82;2.20;;;32.50;66.10;;;30.97;50.31;94155.13;5041211;28;20190;-75
2021/06/02 06:36:49;;;;;;;4.90;2.10;;;32.90;66.70;;;31.77;49.75;94144.69;5043807;28;20573;-75
2021/06/02 06:39:29;;;;;;;5.28;2.13;;;33.60;64.90;;;32.99;49.38;94155.00;5058066;28;20194;-72
2021/06/02 06:41:56;;;;;;;3.85;2.17;;;34.70;64.00;;;33.06;48.63;94111.00;5042744;28;20249;-74
2021/06/02 06:44:24;;;;;;;3.95;2.00;;;35.20;60.80;;;32.99;48.75;94131.06;5028999;28;20203;-76
2021/06/02 06:46:57;;;;;;;2.08;1.88;;;35.20;59.90;;;33.24;47.84;94133.66;5029126;28;20184;-72
2021/06/02 06:49:26;;;;;;;3.90;2.00;;;35.40;59.60;;;33.52;47.56;94160.97;5036382;28;20627;-73
2021/06/02 06:51:54;;;;;;;3.13;1.95;;;35.40;58.90;;;33.52;47.59;94157.44;5040900;28;20180;-71
2021/06/02 06:54:23;;;;;;;6.22;2.13;;;35.50;58.70;;;33.61;47.07;94111.06;5042498;28;20602;-74
2021/06/02 06:56:51;;;;;;;5.10;2.15;;;35.60;58.70;;;34.26;46.25;94140.34;5046570;28;20716;-73
2021/06/02 06:59:19;;;;;;;4.25;1.85;;;35.90;58.10;;;34.13;46.11;94111.78;5058367;28;20211;-70
2021/06/02 07:01:46;;;;;;;3.10;1.80;;;35.70;57.30;;;32.84;45.44;94074.63;5044954;28;20188;-71
2021/06/02 07:04:12;;;;;;;2.42;1.80;;;34.50;57.90;;;31.61;45.85;94118.84;5061061;28;20560;-75
2021/06/02 07:06:41;;;;;;;1.75;1.63;;;33.20;60.70;;;31.50;45.11;94163.47;5044200;28;20191;-73
2021/06/02 07:09:10;;;;;;;2.40;1.83;;;32.50;63.30;;;30.82;45.16;94125.34;5044496;28;20196;-72
2021/06/02 07:11:40;;;;;;;7.80;2.20;;;31.60;63.80;;;30.41;44.62;94109.16;5047302;28;20639;-71
2021/06/02 07:14:09;;;;;;;4.03;1.90;;;31.00;65.40;;;29.58;44.49;94066.47;5027763;28;20192;-73
2021/06/02 07:16:37;;;;;;;3.30;1.97;;;30.30;65.80;;;29.91;44.32;94157.31;5021645;28;20734;-72
2021/06/02 07:19:08;;;;;;;3.43;1.90;;;30.10;66.40;;;30.36;44.43;94175.16;5055846;28;20552;-75
2021/06/02 07:21:36;;;;;;;2.00;1.60;;;30.10;66.50;;;31.12;44.00;94160.66;5057106;28;20188;-70
2021/06/02 07:24:11;;;;;;;2.87;1.80;;;30.80;67.00;;;31.12;43.51;94136.00;5041540;28;20284;-72
2021/06/02 07:26:40;;;;;;;2.87;1.67;;;31.20;64.60;;;31.41;43.36;94154.84;5044214;28;20241;-70
2021/06/02 07:29:08;;;;;;;1.80;1.67;;;31.70;65.30;;;31.77;43.02;94152.13;5044768;28;20873;-71
2021/06/02 07:31:34;;;;;;;2.33;1.70;;;32.20;63.60;;;32.33;42.54;94168.56;5043021;28;20216;-72
2021/06/02 07:34:00;;;;;;;4.33;1.60;;;33.10;61.80;;;33.52;42.78;94176.69;5025201;28;23171;-72
2021/06/02 07:36:26;;;;;;;3.27;1.70;;;34.30;59.50;;;34.25;42.48;94246.13;5044094;28;20224;-71
2021/06/02 07:38:52;;;;;;;2.88;1.40;;;35.00;57.40;;;35.59;41.63;94183.25;5023156;28;20287;-71
2021/06/02 07:41:18;;;;;;;3.15;1.70;;;36.60;57.20;;;35.34;41.77;94056.72;5042515;28;20893;-71
2021/06/02 07:43:45;;;;;;;4.43;1.75;;;37.00;53.40;;;35.34;41.17;94193.81;5027313;28;20258;-71
2021/06/02 07:46:13;;;;;;;2.83;1.90;;;37.20;54.80;;;36.51;40.68;94218.41;5040477;28;20365;-72
2021/06/02 07:48:41;;;;;;;2.90;1.70;;;38.20;53.00;;;37.16;40.50;94137.81;5041381;28;20193;-73
2021/06/02 07:51:07;;;;;;;2.53;1.70;;;39.30;52.00;;;38.72;39.84;94248.44;5042262;28;20184;-71
2021/06/02 07:53:35;;;;;;;3.95;1.95;;;40.80;50.90;;;39.28;39.18;94174.06;5054750;28;20200;-71
2021/06/02 07:56:02;;;;;;;2.53;1.95;;;41.80;50.60;;;38.34;39.24;94030.13;5057221;28;20279;-71
2021/06/02 07:58:28;;;;;;;3.42;1.70;;;41.10;50.60;;;38.62;39.10;94214.25;5040818;28;20198;-71
2021/06/02 08:00:54;;;;;;;2.75;1.60;;;41.20;51.90;;;37.87;38.94;94101.00;5042020;28;20220;-71
2021/06/02 08:03:19;;;;;;;2.53;1.83;;;40.90;51.00;;;37.08;38.54;94108.75;5037609;28;20192;-72
2021/06/02 08:05:45;;;;;;;2.05;1.80;;;40.40;51.80;;;37.28;38.29;94167.56;5040440;28;20203;-73
2021/06/02 08:08:15;;;;;;;2.20;1.60;;;40.00;51.30;;;37.91;37.65;94155.06;5039977;28;20204;-74
2021/06/02 08:10:41;;;;;;;2.08;1.65;;;40.40;50.20;;;37.61;37.32;94133.25;5038232;28;20203;-72
2021/06/02 08:13:09;;;;;;;4.50;2.00;;;40.20;50.80;;;37.77;37.15;94124.19;5057618;28;20204;-74
2021/06/02 08:15:38;;;;;;;2.95;2.30;;;40.50;50.20;;;37.19;37.20;94085.19;5041308;28;20892;-75
2021/06/02 08:18:05;;;;;;;2.50;2.30;;;40.10;50.60;;;34.68;37.14;94080.50;5028136;28;20203;-72
2021/06/02 08:20:34;;;;;;;6.00;2.45;;;37.90;52.40;;;33.06;36.74;94138.47;5024194;28;20306;-73
2021/06/02 08:23:02;;;;;;;3.25;2.25;;;35.90;56.50;;;31.84;36.88;94075.34;5027620;28;20195;-73
2021/06/02 08:25:29;;;;;;;3.90;2.70;;;34.10;59.50;;;31.81;36.54;94189.34;5043076;28;20188;-73
2021/06/02 08:27:55;;;;;;;2.53;2.33;;;33.40;61.30;;;33.28;36.25;94166.63;5024830;28;20187;-73
2021/06/02 08:30:21;;;;;;;3.30;2.38;;;34.50;60.00;;;33.65;36.39;94179.75;5042451;28;21867;-72
2021/06/02 08:32:47;;;;;;;2.67;2.25;;;34.90;59.40;;;35.15;36.11;94242.13;5059803;28;20244;-73
2021/06/02 08:35:16;;;;;;;5.93;2.47;;;36.40;57.40;;;35.59;35.92;94177.72;5022824;28;20321;-74
2021/06/02 08:37:43;;;;;;;3.97;2.22;;;36.90;56.40;;;36.92;35.55;94214.53;5041341;28;20300;-74
2021/06/02 08:40:11;;;;;;;3.22;2.22;;;38.50;53.80;;;37.53;35.66;94170.63;5041699;28;20211;-73
2021/06/02 08:42:43;;;;;;;2.80;1.92;;;39.40;52.10;;;38.85;35.23;94166.16;5040032;28;20187;-73
2021/06/02 08:45:12;;;;;;;3.60;2.45;;;40.90;51.50;;;40.27;34.51;94173.72;5039600;28;20179;-73
2021/06/02 08:47:41;;;;;;;3.92;2.72;;;42.50;51.40;;;40.53;34.57;94160.53;5038692;28;20192;-72
2021/06/02 08:50:11;;;;;;;5.85;2.80;;;43.30;49.00;;;39.85;34.03;94103.69;5058377;28;20271;-74
2021/06/02 08:52:39;;;;;;;2.67;2.47;;;43.00;48.50;;;40.33;33.86;94163.59;5039541;28;20198;-73
2021/06/02 08:55:14;;;;;;;2.60;2.40;;;43.30;47.50;;;39.61;33.40;94116.31;5056463;28;20188;-73
2021/06/02 08:57:43;;;;;;;4.15;2.50;;;43.10;47.20;;;37.70;34.10;94113.28;5041515;28;20187;-72
2021/06/02 09:00:16;;;;;;;4.80;2.58;;;41.20;49.10;;;35.67;33.94;94095.63;5041460;28;20210;-72
2021/06/02 09:02:54;;;;;;;4.40;2.78;;;39.00;51.80;;;34.36;33.90;94141.41;5042584;28;20196;-71
2021/06/02 09:05:30;;;;;;;5.55;2.72;;;37.20;53.30;;;33.31;33.27;94110.88;5040724;28;20187;-72
2021/06/02 09:07:58;;;;;;;5.18;2.20;;;35.50;55.20;;;32.54;33.25;94148.47;5041495;28;20196;-71
2021/06/02 09:10:25;;;;;;;9.15;2.60;;;34.30;57.60;;;32.39;33.67;94138.72;5027634;28;20188;-72
2021/06/02 09:12:59;;;;;;;5.53;2.70;;;33.90;57.40;;;32.07;33.39;94160.75;5043299;28;20249;-71
2021/06/02 09:15:32;;;;;;;5.57;3.00;;;33.40;58.70;;;32.54;33.40;94184.94;5041374;28;20296;-72
2021/06/02 09:18:04;;;;;;;4.23;2.80;;;33.70;59.50;;;33.08;32.85;94177.31;5043607;28;20191;-71
2021/06/02 09:20:43;;;;;;;4.30;2.60;;;34.00;58.50;;;32.38;33.23;94153.63;5046571;28;20246;-71
2021/06/02 09:23:44;;;;;;;5.43;2.80;;;33.60;57.10;;;31.43;33.25;94173.59;5045721;28;20333;-71
2021/06/02 09:26:32;;;;;;;4.60;2.90;;;32.80;60.30;;;31.02;33.03;94156.72;5028581;28;20653;-70
2021/06/02 09:29:12;;;;;;;8.43;3.07;;;32.20;62.10;;;30.03;32.74;94173.41;5045909;28;20191;-71
2021/06/02 09:31:42;;;;;;;10.10;3.03;;;31.20;64.40;;;29.75;32.94;94156.00;5037883;28;20245;-72
2021/06/02 09:34:26;;;;;;;3.23;2.93;;;30.80;64.80;;;29.84;33.00;94165.47;5042826;28;20179;-72
2021/06/02 09:37:03;;;;;;;5.40;3.30;;;30.60;65.60;;;29.62;33.43;94122.69;5044977;28;20234;-70
2021/06/02 09:39:38;;;;;;;3.47;2.90;;;30.20;65.30;;;29.40;32.98;94161.94;5045664;28;20233;-73
2021/06/02 09:42:26;;;;;;;4.83;3.10;;;30.10;66.90;;;29.68;33.14;94184.06;5044835;28;20192;-70
2021/06/02 09:45:13;;;;;;;4.93;3.27;;;30.20;66.80;;;30.89;33.26;94229.41;5045033;28;20631;-70
2021/06/02 09:47:53;;;;;;;4.60;2.97;;;31.00;67.10;;;32.49;33.15;94203.81;5042574;28;20263;-70
2021/06/02 09:50:29;;;;;;;6.50;3.23;;;33.00;63.70;;;32.10;33.08;94159.19;5044212;28;20195;-72
2021/06/02 09:53:03;;;;;;;6.83;3.63;;;33.00;62.70;;;32.03;32.91;94157.97;5044721;28;20219;-70
2021/06/02 09:55:35;;;;;;;6.33;3.83;;;32.80;61.60;;;30.94;32.93;94092.13;5031163;28;20207;-71
2021/06/02 09:58:01;;;;;;;5.30;3.77;;;31.80;63.30;;;30.05;32.76;94148.41;5059022;28;20192;-70
2021/06/02 10:00:31;;;;;;;5.23;3.40;;;30.70;65.60;;;29.59;33.04;94136.31;5044576;28;20450;-70
2021/06/02 10:03:03;;;;;;;5.67;3.70;;;30.30;68.00;;;29.63;33.21;94154.31;5044059;28;20612;-71
2021/06/02 10:05:50;;;;;;;9.00;3.93;;;30.10;68.50;;;29.44;32.99;94160.03;5061104;28;20188;-71
2021/06/02 10:08:34;;;;;;;5.17;3.87;;;29.70;69.00;;;29.07;33.02;94157.31;5058894;28;20310;-71
2021/06/02 10:11:17;;;;;;;4.67;4.07;;;29.20;70.60;;;28.73;33.07;94162.00;5042385;28;20196;-70
2021/06/02 10:13:49;;;;;;;4.97;3.97;;;28.80;71.60;;;28.42;33.04;94135.09;5043507;28;20659;-71
2021/06/02 10:16:45;;;;;;;5.90;3.80;;;28.50;72.10;;;28.89;32.90;94202.72;5026644;28;20190;-74
2021/06/02 10:19:11;;;;;;;5.57;3.93;;;28.80;72.80;;;29.59;33.22;94169.13;5026361;28;20212;-74
2021/06/02 10:21:55;;;;;;;6.70;4.33;;;29.40;71.10;;;30.29;33.52;94197.00;5062798;28;20567;-72
2021/06/02 10:24:21;;;;;;;6.40;4.00;;;30.10;69.80;;;30.32;33.43;94162.66;5041702;28;20199;-73
2021/06/02 10:26:48;;;;;;;4.67;4.17;;;30.50;68.10;;;31.25;33.45;94201.00;5026740;28;20203;-73
2021/06/02 10:29:13;;;;;;;8.03;4.00;;;31.30;67.40;;;31.79;33.34;94149.78;5042487;28;20195;-74
2021/06/02 10:31:39;;;;;;;6.30;3.73;;;31.80;64.40;;;31.28;33.54;94128.19;5028872;28;20204;-74
2021/06/02 10:34:05;;;;;;;6.10;4.10;;;31.60;67.10;;;31.52;33.30;94177.59;5042062;28;20206;-73
2021/06/02 10:36:34;;;;;;;4.80;4.40;;;31.70;66.90;;;32.49;33.31;94201.84;5047623;28;20218;-73
2021/06/02 10:39:05;;;;;;;8.43;4.00;;;32.70;66.00;;;33.57;33.38;94157.03;5026539;28;20203;-73
2021/06/02 10:41:42;;;;;;;4.77;4.27;;;34.00;62.40;;;34.36;33.06;94188.22;5056408;28;20192;-73
2021/06/02 10:44:17;;;;;;;4.60;3.50;;;35.00;59.90;;;35.60;33.17;94195.81;5037289;28;20192;-73
2021/06/02 10:46:50;;;;;;;4.65;3.10;;;36.50;59.00;;;35.65;32.75;94189.06;5025752;28;20188;-74
2021/06/02 10:49:26;;;;;;;5.70;2.67;;;36.70;55.60;;;34.41;32.40;94141.75;5054876;28;20191;-73
2021/06/02 10:51:53;;;;;;;7.40;3.17;;;35.80;59.20;;;34.18;32.87;94169.16;5059415;28;20192;-74
2021/06/02 10:54:34;;;;;;;5.20;2.80;;;35.40;58.50;;;35.79;32.02;94286.22;5059489;28;20282;-73
2021/06/02 10:57:00;;;;;;;5.28;3.20;;;36.40;58.50;;;37.55;32.40;94156.34;5044761;28;20274;-73
2021/06/02 10:59:41;;;;;;;5.18;2.90;;;38.70;54.70;;;38.26;31.75;94170.03;5055712;28;20318;-72
2021/06/02 11:02:40;;;;;;;5.18;2.80;;;39.90;53.30;;;39.57;31.42;94219.16;5022077;28;21090;-74
2021/06/02 11:05:08;;;;;;;2.65;2.45;;;41.50;51.50;;;40.26;31.39;94184.06;5000838;28;20759;-74
2021/06/02 11:07:52;;;;;;;2.72;2.30;;;42.20;51.40;;;39.43;31.30;94169.63;4986913;28;20193;-74
2021/06/02 11:10:20;;;;;;;4.13;2.47;;;41.80;50.60;;;37.14;31.36;94157.59;4987509;28;20196;-73
2021/06/02 11:12:49;;;;;;;3.58;2.00;;;39.70;52.90;;;35.64;31.69;94057.84;4985247;28;20544;-74
2021/06/02 11:15:48;;;;;;;2.38;2.20;;;38.20;53.20;;;32.62;30.99;94130.03;4982201;28;20205;-74
2021/06/02 11:18:19;;;;;;;2.67;2.15;;;34.90;55.90;;;31.91;31.38;94163.09;4966963;28;20199;-76